Station Historical Data
Daily Summary for June 21, 2017 Units:  Metric    English   Both
« Previous Day
Next Day »
Daily Weekly Monthly Yearly Custom
  High: Low: Average:
Temperature: 25.8 °C 20.6 °C 22.7 °C
Dew Point: 22.4 °C 19.2 °C 20.9 °C
Humidity: 95% 78% 90%
Wind Speed: 0km/h 0km/h 0km/h
Wind Gust: 3.2km/h - -
Wind- -
Pressure: 1019.5 hPa 1017.8 hPa -
Precipitation: 6.35 mm    
Historical Graphs
 
 
Tabular Data for June 21, 2017
Time Temperature Dew Point Pressure Wind Wind Speed Wind Gust Humidity Rainfall Rate (Hourly) Conditions
00:00 20.7 °C 19.6 °C 1018.8 hPa Calm     93% 0 mm RA
00:10 21.4 °C 20.6 °C 1018.8 hPa Calm     95% 0 mm CLR
00:20 21.4 °C 20.6 °C 1018.5 hPa Calm     95% 0 mm CLR
00:30 21.4 °C 20.6 °C 1018.8 hPa Calm     95% 0 mm CLR
00:40 21.4 °C 20.6 °C 1018.8 hPa Calm     95% 0 mm CLR
00:50 21.4 °C 20.6 °C 1018.5 hPa Calm     95% 0 mm CLR
01:00 21.4 °C 20.6 °C 1018.5 hPa Calm     95% 0 mm CLR
01:10 21.4 °C 20.6 °C 1018.5 hPa Calm     95% 0 mm CLR
01:20 21.4 °C 20.6 °C 1018.5 hPa Calm     95% 0 mm CLR
01:30 21.4 °C 20.6 °C 1018.5 hPa Calm     95% 0 mm CLR
01:40 21.4 °C 20.6 °C 1018.5 hPa Calm     95% 0 mm CLR
01:50 21.4 °C 20.6 °C 1018.2 hPa Calm     95% 0 mm CLR
02:00 21.4 °C 20.6 °C 1018.2 hPa Calm     95% 0 mm CLR
02:10 21.4 °C 20.6 °C 1018.2 hPa Calm     95% 0 mm CLR
02:20 21.4 °C 20.6 °C 1018.2 hPa Calm     95% 0 mm CLR
02:30 21.4 °C 20.6 °C 1018.2 hPa Calm     95% 0 mm CLR
02:40 21.4 °C 20.6 °C 1018.2 hPa Calm     95% 0 mm CLR
02:50 21.4 °C 20.6 °C 1018.2 hPa Calm     95% 0 mm CLR
03:00 21.4 °C 20.6 °C 1017.8 hPa Calm     95% 0 mm CLR
03:10 21.4 °C 20.6 °C 1017.8 hPa Calm     95% 0 mm CLR
03:20 21.4 °C 20.6 °C 1017.8 hPa Calm     95% 0 mm CLR
03:30 21.4 °C 20.6 °C 1017.8 hPa Calm     95% 0 mm CLR
03:40 21.4 °C 20.6 °C 1017.8 hPa Calm     95% 0 mm CLR
03:50 21.4 °C 20.6 °C 1017.8 hPa Calm     95% 0 mm CLR
04:00 21.4 °C 20.6 °C 1017.8 hPa Calm     95% 0 mm CLR
04:10 21.4 °C 20.6 °C 1017.8 hPa Calm     95% 0 mm CLR
04:20 21.4 °C 20.6 °C 1017.8 hPa Calm     95% 0 mm CLR
04:40 21.4 °C 20.6 °C 1017.8 hPa Calm     95% 0 mm CLR
05:00 21.4 °C 20.6 °C 1017.8 hPa Calm     95% 0 mm CLR
05:10 21.4 °C 20.6 °C 1017.8 hPa Calm     95% 0 mm CLR
05:20 21.4 °C 20.6 °C 1018.2 hPa Calm     95% 0 mm CLR
05:30 21.4 °C 20.6 °C 1018.2 hPa Calm     95% 0 mm CLR
05:40 21.4 °C 20.6 °C 1018.5 hPa Calm     95% 0 mm CLR
05:50 21.4 °C 20.6 °C 1018.5 hPa Calm     95% 0 mm CLR
06:00 21.4 °C 20.6 °C 1018.5 hPa Calm     95% 0 mm CLR
06:10 21.4 °C 20.6 °C 1018.5 hPa Calm     95% 0 mm CLR
06:20 21.4 °C 20.6 °C 1018.5 hPa Calm     95% 0 mm CLR
06:30 21.4 °C 20.6 °C 1018.5 hPa Calm     95% 0 mm CLR
06:40 21.4 °C 20.6 °C 1018.5 hPa Calm     95% 0 mm CLR
06:50 21.4 °C 20.6 °C 1018.5 hPa Calm     95% 0 mm CLR
07:00 21.4 °C 20.6 °C 1018.5 hPa Calm     95% 0 mm CLR
07:10 21.4 °C 20.6 °C 1018.8 hPa Calm     95% 0 mm CLR
07:20 21.4 °C 20.6 °C 1018.8 hPa Calm     95% 0 mm CLR
07:30 21.4 °C 20.6 °C 1018.8 hPa Calm     95% 0 mm CLR
07:40 21.4 °C 20.6 °C 1018.8 hPa Calm     95% 0 mm CLR
07:50 21.4 °C 20.6 °C 1018.5 hPa Calm     95% 0 mm CLR
08:00 21.4 °C 20.6 °C 1018.5 hPa Calm     95% 0 mm CLR
08:10 21.4 °C 20.6 °C 1018.8 hPa Calm     95% 0 mm CLR
08:20 21.4 °C 20.6 °C 1018.8 hPa Calm     95% 0 mm CLR
08:30 21.4 °C 20.6 °C 1018.8 hPa Calm     95% 0 mm CLR
08:40 21.2 °C 20.2 °C 1018.8 hPa Calm     94% 0 mm CLR
08:50 21.3 °C 20.1 °C 1018.8 hPa Calm     93% 0 mm CLR
09:00 21.4 °C 20.3 °C 1018.8 hPa Calm     93% 0 mm CLR
09:10 21.5 °C 20.3 °C 1018.8 hPa Calm     93% 0 mm CLR
09:20 21.7 °C 20.5 °C 1019.2 hPa Calm     93% 0 mm CLR
09:30 21.9 °C 20.6 °C 1018.8 hPa Calm     92% 0 mm CLR
09:40 21.9 °C 20.4 °C 1018.8 hPa Calm   1.6 km/h 91% 0 mm BKN
09:50 22.2 °C 20.6 °C 1018.8 hPa Calm   1.6 km/h 91% 0 mm BKN
10:20 22.8 °C 21.1 °C 1018.8 hPa Calm     90% 0 mm BKN
10:30 23.1 °C 20.9 °C 1018.8 hPa Calm   1.6 km/h 88% 0 mm OVC
10:40 23.1 °C 21 °C 1019.2 hPa Calm   1.6 km/h 88% 0 mm OVC
10:50 23.3 °C 21 °C 1019.2 hPa Calm   1.6 km/h 87% 0 mm OVC
11:00 23.4 °C 20.9 °C 1019.2 hPa Calm   1.6 km/h 86% 0 mm OVC
11:10 23.6 °C 21.3 °C 1019.2 hPa Calm   1.6 km/h 87% 0 mm OVC
11:20 23.9 °C 21.6 °C 1019.2 hPa Calm     87% 0 mm OVC
11:30 24.2 °C 21.5 °C 1019.2 hPa Calm   1.6 km/h 85% 0 mm OVC
11:40 24.3 °C 21.6 °C 1019.2 hPa Calm   1.6 km/h 85% 0 mm OVC
11:50 24.3 °C 21.7 °C 1019.2 hPa Calm   1.6 km/h 85% 0 mm OVC
12:00 24.4 °C 21.5 °C 1019.5 hPa Calm   1.6 km/h 84% 0 mm OVC
12:10 24.6 °C 21.6 °C 1019.5 hPa Calm   1.6 km/h 83% 0 mm OVC
12:30 25.5 °C 22.4 °C 1019.5 hPa Calm   1.6 km/h 83% 0 mm OVC
12:40 25.7 °C 21.8 °C 1019.5 hPa Calm     79% 0 mm OVC
12:50 25.4 °C 21.3 °C 1019.5 hPa Calm   1.6 km/h 78% 0 mm OVC
13:00 25.4 °C 21.7 °C 1019.5 hPa Calm   3.2 km/h 80% 0 mm OVC
13:10 25.4 °C 21.7 °C 1019.5 hPa Calm   1.6 km/h 80% 0 mm OVC
13:20 25.2 °C 21.5 °C 1019.5 hPa Calm   1.6 km/h 80% 0 mm OVC
13:30 24.9 °C 21.4 °C 1019.5 hPa Calm   1.6 km/h 81% 0 mm OVC
13:40 24.8 °C 21.5 °C 1019.5 hPa Calm     82% 0 mm OVC
13:50 24.8 °C 21.7 °C 1019.5 hPa Calm     83% 0 mm OVC
14:00 25 °C 21.9 °C 1019.2 hPa Calm     83% 0 mm OVC
14:10 25.1 °C 21.8 °C 1019.2 hPa Calm     82% 0 mm OVC
14:20 25.1 °C 21.8 °C 1019.2 hPa Calm     82% 0 mm OVC
14:30 25.2 °C 21.9 °C 1018.8 hPa Calm     82% 0 mm OVC
14:40 25.1 °C 21.6 °C 1018.8 hPa Calm     81% 0 mm OVC
14:50 25.1 °C 21.8 °C 1018.8 hPa Calm     82% 0 mm OVC
15:00 25.1 °C 22 °C 1018.8 hPa Calm     83% 0 mm OVC
15:10 25.1 °C 21.8 °C 1018.8 hPa Calm     82% 0 mm OVC
15:20 25.3 °C 22.2 °C 1018.8 hPa Calm   1.6 km/h 83% 0 mm OVC
15:30 25.4 °C 22.2 °C 1018.5 hPa Calm     82% 0 mm OVC
15:40 25.5 °C 21.8 °C 1018.8 hPa Calm     80% 0 mm OVC
15:50 25.6 °C 21.5 °C 1018.5 hPa Calm   1.6 km/h 78% 0 mm OVC
16:00 25.7 °C 22 °C 1018.5 hPa Calm     80% 0 mm OVC
16:10 25.8 °C 22.1 °C 1018.5 hPa Calm     80% 0 mm OVC
16:20 25.6 °C 21.7 °C 1018.5 hPa Calm     79% 0 mm OVC
16:30 25.1 °C 21.6 °C 1018.5 hPa Calm     81% 0 mm OVC
16:40 24.8 °C 21.7 °C 1018.5 hPa Calm     83% 0 mm OVC
16:50 24.6 °C 21.9 °C 1018.5 hPa Calm     85% 0 mm OVC
17:00 24.4 °C 21.8 °C 1018.2 hPa Calm     85% 0 mm OVC
17:10 24.5 °C 22 °C 1018.2 hPa Calm     86% 0 mm OVC
17:20 24.5 °C 21.8 °C 1018.2 hPa Calm     85% 0 mm OVC
17:30 24.7 °C 22.2 °C 1018.2 hPa Calm     86% 0 mm OVC
17:40 24.7 °C 21.8 °C 1018.2 hPa Calm     84% 0 mm OVC
17:50 24.7 °C 22.1 °C 1018.2 hPa Calm     85% 0 mm OVC
18:00 24.8 °C 22.1 °C 1018.2 hPa Calm     85% 0 mm OVC
18:10 24.8 °C 22.3 °C 1018.2 hPa Calm     86% 0 mm OVC
18:20 24.8 °C 22.3 °C 1018.2 hPa Calm     86% 0 mm OVC
18:30 24.7 °C 22.2 °C 1018.2 hPa Calm     86% 0 mm OVC
18:40 24.7 °C 22.2 °C 1018.2 hPa Calm     86% 0 mm OVC
18:50 24.6 °C 22.1 °C 1018.2 hPa Calm     86% 0 mm OVC
19:00 24.6 °C 22.3 °C 1018.2 hPa Calm     87% 0 mm OVC
19:10 24.5 °C 22.2 °C 1018.2 hPa Calm     87% 0 mm OVC
19:20 24.4 °C 22.1 °C 1018.2 hPa Calm     87% 0 mm OVC
19:30 24.3 °C 22 °C 1018.5 hPa Calm     87% 0 mm OVC
19:40 23.5 °C 20.7 °C 1018.5 hPa Calm   3.2 km/h 84% 0 mm OVC
19:50 22.2 °C 19.9 °C 1018.8 hPa Calm   3.2 km/h 87% 1.02 mm RA
20:00 21.3 °C 19.2 °C 1018.8 hPa Calm     88% 1.02 mm -RA
20:10 20.9 °C 19.2 °C 1018.8 hPa Calm     90% 0.76 mm -RA
20:20 20.7 °C 19.2 °C 1018.8 hPa Calm     91% 0.76 mm RA
20:30 20.7 °C 19.3 °C 1018.8 hPa Calm     92% 0.51 mm -RA
20:40 20.6 °C 19.3 °C 1018.8 hPa Calm     92% 0.51 mm -RA
20:50 20.6 °C 19.2 °C 1018.8 hPa Calm     92% 0.51 mm -DZ
21:10 20.6 °C 19.2 °C 1018.8 hPa Calm     92% 0.25 mm -DZ
21:21 20.6 °C 19.2 °C 1018.8 hPa Calm     92% 0 mm OVC
21:30 20.6 °C 19.4 °C 1018.8 hPa Calm     93% 0 mm OVC
21:40 20.6 °C 19.4 °C 1018.8 hPa Calm     93% 0 mm OVC
21:50 20.6 °C 19.4 °C 1018.8 hPa Calm     93% 0 mm OVC
22:00 20.6 °C 19.4 °C 1019.2 hPa Calm     93% 0 mm OVC
22:10 20.7 °C 19.5 °C 1019.2 hPa Calm     93% 0.25 mm RA
22:20 20.7 °C 19.5 °C 1019.2 hPa Calm     93% 0 mm OVC
22:30 20.7 °C 19.6 °C 1019.2 hPa Calm     93% 0 mm OVC
22:40 20.7 °C 19.7 °C 1019.2 hPa Calm     94% 0 mm OVC
22:50 21.1 °C 20.2 °C 1019.2 hPa Calm     95% 0 mm -DZ
23:00 21.1 °C 20.2 °C 1019.5 hPa Calm     95% 0 mm -DZ
23:20 21.1 °C 20.2 °C 1019.5 hPa Calm     95% 0 mm OVC
23:30 21.1 °C 20.2 °C 1019.5 hPa Calm     95% 0 mm CLR
23:40 21.1 °C 20.2 °C 1019.5 hPa Calm     95% 0 mm CLR
23:51 21.1 °C 20.2 °C 1019.5 hPa Calm     95% 0 mm CLR
Piedmont Bend
Compliments of Weather Underground - 4 mb